createdAt,value
2019-04-25T05:03:37.885Z,48.98
2019-04-25T05:06:11.038Z,47.98
2019-04-25T05:08:45.213Z,56.18
2019-04-25T05:11:17.054Z,52.35
2019-04-25T05:13:49.513Z,56.70
2019-04-25T05:16:21.885Z,56.35
2019-04-25T05:18:55.300Z,61.70
2019-04-25T05:21:27.018Z,72.30
2019-04-25T05:23:58.488Z,93.42
2019-04-25T05:26:29.964Z,83.03
2019-04-25T05:29:01.473Z,78.95
2019-04-25T05:31:40.261Z,82.12
2019-04-25T05:34:13.564Z,81.12
2019-04-25T05:36:46.131Z,81.08
2019-04-25T05:39:18.182Z,82.00
2019-04-25T05:41:55.186Z,83.30
2019-04-25T05:44:27.455Z,86.60
2019-04-25T05:46:59.080Z,81.80
2019-04-25T05:49:30.598Z,79.77
2019-04-25T05:52:02.086Z,95.12
2019-04-25T05:54:34.355Z,87.55
2019-04-25T05:57:06.106Z,86.85
2019-04-25T05:59:37.504Z,63.87
2019-04-25T07:03:59.710Z,64.72
2019-04-25T07:06:31.388Z,70.83
2019-04-25T07:09:03.894Z,81.30
2019-04-25T07:11:36.897Z,70.70
2019-04-25T07:14:08.343Z,71.12
2019-04-25T07:16:39.901Z,84.30
2019-04-25T07:19:11.374Z,66.95
2019-04-25T07:21:44.353Z,68.90
2019-04-25T07:24:17.488Z,74.67
2019-04-25T07:26:53.865Z,51.95
2019-04-25T07:29:30.532Z,71.33
2019-04-25T07:32:16.871Z,56.63
2019-04-25T07:34:48.326Z,57.38
2019-04-25T07:37:19.797Z,50.23
2019-04-25T07:39:51.174Z,50.45
2019-04-25T07:42:23.846Z,45.52
2019-04-25T07:44:55.437Z,48.60
2019-04-25T07:47:27.053Z,44.70
2019-04-25T07:49:58.604Z,47.50
2019-04-25T07:52:30.903Z,49.70
2019-04-25T07:55:03.775Z,45.28
2019-04-25T07:57:35.910Z,47.08
2019-04-25T08:00:13.299Z,42.60
2019-04-25T08:02:46.220Z,43.58
2019-04-25T08:05:17.806Z,43.23
2019-04-25T08:07:49.397Z,40.23
2019-04-25T08:10:21.855Z,42.30
2019-04-25T08:12:53.684Z,45.90
2019-04-25T08:15:43.582Z,47.62
2019-04-25T08:18:15.310Z,44.13
2019-04-25T08:20:47.509Z,40.67
2019-04-25T08:23:20.766Z,39.45
2019-04-25T08:25:52.188Z,41.15
2019-04-25T08:28:23.741Z,38.67
2019-04-25T08:30:55.104Z,41.63
2019-04-25T08:33:26.576Z,40.10
2019-04-25T08:36:08.200Z,39.30
2019-04-25T08:38:31.515Z,44.38
2019-04-25T08:41:04.074Z,40.78
2019-04-25T08:43:38.737Z,40.50
2019-04-25T08:46:08.882Z,38.25
2019-04-25T08:48:58.037Z,32.20
2019-04-25T08:51:32.018Z,36.25
2019-04-25T08:54:09.022Z,41.77
2019-04-25T08:56:40.586Z,36.77
2019-04-25T08:59:35.987Z,37.67
2019-04-25T09:02:19.675Z,42.88
2019-04-25T09:04:58.772Z,38.40
2019-04-25T09:07:30.339Z,40.28
2019-04-25T09:10:03.469Z,43.30
2019-04-25T09:12:35.633Z,36.08
2019-04-25T09:15:07.985Z,41.28
2019-04-25T09:17:39.554Z,32.55
2019-04-25T09:20:11.221Z,29.98
2019-04-25T09:22:44.222Z,32.65
2019-04-25T09:25:16.112Z,38.88
2019-04-25T09:27:48.611Z,37.78
2019-04-25T09:30:20.283Z,40.00
2019-04-25T09:32:53.353Z,34.27
2019-04-25T09:35:24.971Z,38.73
2019-04-25T09:37:56.571Z,39.78
2019-04-25T09:40:29.121Z,37.78
2019-04-25T09:43:00.996Z,33.33
2019-04-25T09:45:37.616Z,32.48
2019-04-25T09:48:17.111Z,32.15
2019-04-25T09:50:50.221Z,32.20
2019-04-25T09:53:24.319Z,33.40
2019-04-25T09:55:56.498Z,37.85
2019-04-25T09:58:29.544Z,35.00
2019-04-25T10:01:05.811Z,30.52
2019-04-25T10:03:38.600Z,33.60
2019-04-25T10:06:10.563Z,35.60
2019-04-25T10:08:42.023Z,29.25
2019-04-25T10:11:14.797Z,35.55
2019-04-25T10:14:16.825Z,32.67
2019-04-25T10:16:48.254Z,30.10
2019-04-25T10:19:19.749Z,32.33
2019-04-25T10:21:53.430Z,38.65
2019-04-25T10:24:25.296Z,33.83
2019-04-25T10:26:56.675Z,29.00
2019-04-25T10:29:39.323Z,26.50
2019-04-25T10:32:01.937Z,27.70
2019-04-25T10:34:33.459Z,31.48
2019-04-25T10:37:05.456Z,33.92
2019-04-25T10:39:37.098Z,28.67
2019-04-25T10:42:08.520Z,36.25
2019-04-25T10:44:40.172Z,37.10
2019-04-25T10:47:11.780Z,29.23
2019-04-25T10:49:44.971Z,28.52
2019-04-25T10:52:16.835Z,31.68
2019-04-25T10:54:48.392Z,30.23
2019-04-25T10:57:19.968Z,24.95
2019-04-25T11:00:00.344Z,27.55
2019-04-25T11:02:24.788Z,33.38
2019-04-25T11:05:00.632Z,27.90
2019-04-25T11:07:33.824Z,31.60
2019-04-25T11:10:06.827Z,27.58
2019-04-25T11:12:38.492Z,31.30
2019-04-25T11:15:10.013Z,31.42
2019-04-25T11:17:42.439Z,31.52
2019-04-25T11:20:29.705Z,31.55
2019-04-25T11:23:01.273Z,32.88
2019-04-25T11:25:34.181Z,37.88
2019-04-25T11:28:08.451Z,32.30
2019-04-25T11:30:41.869Z,31.07
2019-04-25T11:33:14.351Z,31.65
2019-04-25T11:35:48.106Z,30.00
2019-04-25T11:38:21.630Z,36.00
2019-04-25T11:41:00.946Z,30.23
2019-04-25T11:43:33.735Z,38.95
2019-04-25T11:46:06.748Z,29.77
2019-04-25T11:48:38.300Z,32.10
2019-04-25T11:51:10.280Z,25.72
2019-04-25T11:53:41.772Z,36.15
2019-04-25T11:56:13.775Z,30.40
2019-04-25T11:58:46.841Z,31.55
2019-04-25T12:01:18.967Z,29.90
2019-04-25T12:03:50.452Z,27.58
2019-04-25T12:06:21.948Z,30.72
2019-04-25T12:08:54.212Z,31.12
2019-04-25T12:11:26.543Z,29.45
2019-04-25T12:13:59.001Z,29.27
2019-04-25T12:16:31.582Z,32.28
2019-04-25T12:19:04.685Z,33.40
2019-04-25T12:21:36.258Z,31.37
2019-04-25T12:24:07.732Z,28.30
2019-04-25T12:26:39.109Z,36.30
2019-04-25T12:29:10.504Z,35.75
2019-04-25T12:31:41.936Z,29.67
2019-04-25T12:34:14.167Z,41.85
2019-04-25T12:36:45.787Z,30.65
2019-04-25T12:39:17.409Z,31.93
2019-04-25T12:41:50.400Z,29.05
2019-04-25T12:44:26.548Z,32.05
2019-04-25T12:47:05.643Z,40.28
2019-04-25T12:49:37.106Z,29.98
2019-04-25T12:52:08.514Z,29.95
2019-04-25T13:11:14.049Z,34.67
2019-04-25T13:13:45.517Z,28.23
2019-04-25T13:16:17.323Z,29.27
2019-04-25T13:18:48.970Z,28.77
2019-04-25T13:21:20.518Z,34.00
2019-04-25T13:23:52.077Z,31.62
2019-04-25T13:26:25.228Z,30.72
2019-04-25T17:05:51.878Z,86.97
2019-04-25T17:08:24.617Z,87.62
2019-04-25T17:10:56.673Z,95.72
2019-04-25T17:13:30.747Z,93.40
2019-04-25T17:16:04.491Z,77.70
2019-04-25T17:18:52.891Z,98.97
2019-04-25T17:21:24.413Z,110.97
2019-04-25T17:23:57.010Z,93.67
2019-04-25T17:26:31.438Z,101.55
2019-04-25T17:29:05.936Z,102.72
2019-04-25T17:31:51.294Z,80.10
2019-04-25T17:34:41.023Z,88.52
2019-04-25T17:37:17.042Z,80.32
2019-04-25T17:39:56.369Z,75.28
2019-04-25T17:42:28.442Z,74.40
2019-04-25T17:45:00.016Z,63.17
2019-04-25T17:47:32.113Z,70.03
2019-04-25T17:50:09.761Z,59.40
2019-04-25T17:52:41.516Z,62.15
2019-04-25T17:55:13.678Z,65.28
2019-04-25T17:57:45.345Z,61.77
2019-04-25T18:00:19.434Z,50.75
2019-04-25T18:02:58.665Z,58.60
2019-04-25T18:05:25.129Z,57.58
2019-04-25T18:07:56.768Z,55.17
2019-04-25T18:10:29.231Z,68.05
2019-04-25T18:13:00.801Z,56.48
2019-04-25T18:15:35.290Z,53.78
2019-04-25T18:18:10.154Z,54.10
2019-04-25T18:20:43.218Z,61.98
2019-04-25T18:23:25.355Z,64.07
2019-04-25T18:26:10.544Z,53.83
2019-04-25T18:28:44.066Z,55.73
2019-04-25T18:31:15.982Z,49.75
2019-04-25T18:33:49.385Z,53.80
2019-04-25T18:36:35.210Z,46.63
2019-04-25T18:39:10.521Z,57.90
2019-04-25T18:41:47.085Z,52.90
